Time;durP1;ratioP1;P1;durP2;ratioP2;P2;SDS_P1;SDS_P2;PMS_P1;PMS_P2;Temp;Humidity;BMP_temperature;BMP_pressure;BME280_temperature;BME280_humidity;BME280_pressure;Samples;Min_cycle;Max_cycle;Signal;HPM_P1;HPM_P2
2022/10/05 00:00:59;;;;;;;;;;;;;;;9.64;96.55;97042.78;4901034;29;20324;-75
2022/10/05 00:03:29;;;;;;;;;;;;;;;9.63;96.64;97036.75;4900641;29;19968;-75
2022/10/05 00:05:56;;;;;;;;;;;;;;;9.61;96.44;97035.34;4891475;29;19952;-75
2022/10/05 00:08:23;;;;;;;;;;;;;;;9.60;97.08;97036.38;4900456;29;20460;-75
2022/10/05 00:10:49;;;;;;;;;;;;;;;9.59;97.16;97040.78;4899417;29;19948;-75
2022/10/05 00:13:15;;;;;;;;;;;;;;;9.58;97.33;97039.19;4900708;29;19963;-75
2022/10/05 00:15:41;;;;;;;;;;;;;;;9.57;97.64;97037.53;4900505;29;19961;-75
2022/10/05 00:18:14;;;;;;;;;;;;;;;9.55;97.54;97040.38;4899452;29;20415;-75
2022/10/05 00:20:41;;;;;;;;;;;;;;;9.54;97.46;97028.28;4899844;29;19961;-75
2022/10/05 00:23:11;;;;;;;;;;;;;;;9.55;97.49;97029.91;4900291;29;19958;-75
2022/10/05 00:25:37;;;;;;;;;;;;;;;9.52;97.62;97022.44;4900515;29;19965;-75
2022/10/05 00:28:11;;;;;;;;;;;;;;;9.50;97.86;97031.50;4900249;29;19958;-75
2022/10/05 00:30:37;;;;;;;;;;;;;;;9.46;98.36;97035.50;4899625;29;19964;-75
2022/10/05 00:33:03;;;;;;;;;;;;;;;9.39;98.21;97038.09;4899927;29;20002;-75
2022/10/05 00:35:29;;;;;;;;;;;;;;;9.35;98.42;97031.63;4899996;29;20503;-75
2022/10/05 00:37:55;;;;;;;;;;;;;;;9.32;98.96;97038.09;4899944;29;19953;-75
2022/10/05 00:40:40;;;;;;;;;;;;;;;9.32;98.57;97034.63;4899813;29;19962;-75
2022/10/05 00:43:06;;;;;;;;;;;;;;;9.28;99.09;97030.78;4899867;29;19957;-75
2022/10/05 00:45:34;;;;;;;;;;;;;;;9.24;99.44;97026.94;4900092;29;19956;-75
2022/10/05 00:48:19;;;;;;;;;;;;;;;9.23;99.36;97020.09;4899614;29;19966;-75
2022/10/05 00:51:09;;;;;;;;;;;;;;;9.22;99.39;97018.47;4899860;29;19956;-75
2022/10/05 00:53:44;;;;;;;;;;;;;;;9.22;99.37;97018.47;4899780;29;19968;-75
2022/10/05 00:56:29;;;;;;;;;;;;;;;9.22;99.15;97015.88;4899575;29;19950;-75
2022/10/05 00:59:14;;;;;;;;;;;;;;;9.22;99.09;97014.06;4886897;29;20309;-75
2022/10/05 01:01:40;;;;;;;;;;;;;;;9.24;98.60;97011.25;4899335;29;19955;-75
2022/10/05 01:04:32;;;;;;;;;;;;;;;9.24;98.65;97019.09;4899620;29;20032;-75
2022/10/05 01:07:05;;;;;;;;;;;;;;;9.23;98.52;97007.81;4896523;29;19962;-75
2022/10/05 01:09:47;;;;;;;;;;;;;;;9.24;98.93;97014.69;4887228;29;19981;-75
2022/10/05 01:12:12;;;;;;;;;;;;;;;9.24;98.74;97013.84;4899158;29;19949;-75
2022/10/05 01:14:51;;;;;;;;;;;;;;;9.24;98.55;97019.09;4899451;29;19969;-75
2022/10/05 01:17:22;;;;;;;;;;;;;;;9.21;98.74;97009.81;4899307;29;19957;-75
2022/10/05 01:19:48;;;;;;;;;;;;;;;9.20;98.84;97015.25;4899294;29;19959;-75
2022/10/05 01:22:34;;;;;;;;;;;;;;;9.20;98.89;97017.88;4899167;29;19986;-74
2022/10/05 01:25:12;;;;;;;;;;;;;;;9.18;98.96;97023.31;4899467;29;19959;-75
2022/10/05 01:27:47;;;;;;;;;;;;;;;9.15;98.93;97013.22;4899136;29;19958;-74
2022/10/05 01:30:15;;;;;;;;;;;;;;;9.15;98.88;97018.47;4898899;29;19953;-75
2022/10/05 01:32:47;;;;;;;;;;;;;;;9.13;99.02;97013.44;4898956;29;19981;-75
2022/10/05 01:35:32;;;;;;;;;;;;;;;9.11;99.76;97010.22;4898910;29;19980;-75
2022/10/05 01:38:13;;;;;;;;;;;;;;;9.07;99.83;97002.91;4898872;29;19956;-75
2022/10/05 01:41:18;;;;;;;;;;;;;;;9.03;99.58;97018.22;4898828;29;19954;-75
2022/10/05 01:43:51;;;;;;;;;;;;;;;9.00;99.37;97004.69;4841536;29;19957;-75
2022/10/05 01:46:29;;;;;;;;;;;;;;;9.01;99.02;97011.53;4841193;29;19964;-75
2022/10/05 01:49:10;;;;;;;;;;;;;;;8.98;98.84;97007.50;4875408;29;19961;-75
2022/10/05 01:51:42;;;;;;;;;;;;;;;8.98;98.24;97004.88;4899329;29;19960;-75
2022/10/05 01:54:08;;;;;;;;;;;;;;;8.98;98.57;97004.09;4898799;29;20996;-75
2022/10/05 01:56:34;;;;;;;;;;;;;;;8.99;98.93;97003.06;4898829;29;20333;-75
2022/10/05 01:59:02;;;;;;;;;;;;;;;8.99;99.48;96997.84;4893511;29;19964;-75
2022/10/05 02:01:28;;;;;;;;;;;;;;;8.98;99.74;96999.66;4890215;29;19982;-75
2022/10/05 02:04:14;;;;;;;;;;;;;;;8.97;99.50;96986.78;4898694;29;20399;-75
2022/10/05 02:06:42;;;;;;;;;;;;;;;8.97;99.64;96987.59;4898442;29;19955;-75
2022/10/05 02:09:08;;;;;;;;;;;;;;;8.95;99.27;96981.75;4898655;29;19954;-75
2022/10/05 02:11:36;;;;;;;;;;;;;;;8.95;99.33;96979.13;4898914;29;20472;-75
2022/10/05 02:14:06;;;;;;;;;;;;;;;8.94;99.42;96977.50;4898521;29;19973;-75
2022/10/05 02:16:36;;;;;;;;;;;;;;;8.96;99.51;96985.16;4899101;29;19974;-75
2022/10/05 02:19:13;;;;;;;;;;;;;;;8.95;99.64;96976.50;4898554;29;19958;-76
2022/10/05 02:21:40;;;;;;;;;;;;;;;8.94;99.75;96974.88;4898799;29;19963;-75
2022/10/05 02:24:08;;;;;;;;;;;;;;;8.95;99.60;96979.13;4898276;29;19953;-75
2022/10/05 02:26:35;;;;;;;;;;;;;;;8.94;99.34;96974.88;4898479;29;19949;-75
2022/10/05 02:29:03;;;;;;;;;;;;;;;8.92;99.25;96967.25;4898353;29;19952;-75
2022/10/05 02:31:47;;;;;;;;;;;;;;;8.89;99.23;96975.47;4898245;29;19960;-75
2022/10/05 02:34:27;;;;;;;;;;;;;;;8.84;99.03;96966.59;4898154;29;19980;-75
2022/10/05 02:37:13;;;;;;;;;;;;;;;8.80;98.95;96962.75;4898476;29;19967;-75
2022/10/05 02:39:49;;;;;;;;;;;;;;;8.77;98.72;96973.59;4897734;29;19966;-75
2022/10/05 02:42:32;;;;;;;;;;;;;;;8.73;98.78;96965.31;4898545;29;19972;-75
2022/10/05 02:45:07;;;;;;;;;;;;;;;8.71;98.72;96957.69;4886710;29;19961;-75
2022/10/05 02:47:41;;;;;;;;;;;;;;;8.69;98.15;96953.63;4898302;29;20427;-75
2022/10/05 02:50:13;;;;;;;;;;;;;;;8.67;98.19;96960.88;4898776;29;20419;-75
2022/10/05 02:52:47;;;;;;;;;;;;;;;8.66;98.01;96967.09;4899474;29;19973;-75
2022/10/05 02:55:15;;;;;;;;;;;;;;;8.66;98.58;96969.72;4902019;29;19988;-75
2022/10/05 02:57:48;;;;;;;;;;;;;;;8.65;99.06;96971.53;4901401;29;19961;-75
2022/10/05 03:00:16;;;;;;;;;;;;;;;8.65;99.07;96965.47;4901646;29;19959;-75
2022/10/05 03:02:48;;;;;;;;;;;;;;;8.64;98.94;96971.72;4901822;29;19959;-75
2022/10/05 03:05:20;;;;;;;;;;;;;;;8.63;98.74;96976.16;4901536;29;19988;-75
2022/10/05 03:07:46;;;;;;;;;;;;;;;8.61;98.77;96978.16;4901438;29;19961;-75
2022/10/05 03:10:30;;;;;;;;;;;;;;;8.58;98.79;96978.50;4901780;29;20332;-75
2022/10/05 03:13:15;;;;;;;;;;;;;;;8.57;99.05;96986.53;4901416;29;19952;-75
2022/10/05 03:15:44;;;;;;;;;;;;;;;8.56;99.15;96984.94;4901047;29;19982;-75
2022/10/05 03:18:18;;;;;;;;;;;;;;;8.54;99.23;96978.09;4901418;29;19957;-75
2022/10/05 03:20:50;;;;;;;;;;;;;;;8.53;98.85;96976.47;4901323;29;19952;-75
2022/10/05 03:23:39;;;;;;;;;;;;;;;8.51;98.40;96972.44;4901735;29;19967;-76
2022/10/05 03:26:16;;;;;;;;;;;;;;;8.49;98.08;96972.63;4901301;29;19956;-75
2022/10/05 03:28:42;;;;;;;;;;;;;;;8.46;97.75;96969.59;4901149;29;19959;-75
2022/10/05 03:31:17;;;;;;;;;;;;;;;8.43;98.33;96962.94;4900949;29;19969;-75
2022/10/05 03:33:43;;;;;;;;;;;;;;;8.42;98.62;96957.91;4900815;29;19982;-75
2022/10/05 03:36:11;;;;;;;;;;;;;;;8.42;98.64;96952.66;4900993;29;19989;-75
2022/10/05 03:38:40;;;;;;;;;;;;;;;8.41;98.84;96961.53;4901056;29;20333;-75
2022/10/05 03:41:11;;;;;;;;;;;;;;;8.40;98.67;96963.31;4901199;29;19965;-75
2022/10/05 03:43:46;;;;;;;;;;;;;;;8.39;98.76;96955.66;4901549;29;20404;-75
2022/10/05 03:46:21;;;;;;;;;;;;;;;8.37;98.84;96955.84;4900833;29;20320;-75
2022/10/05 03:48:50;;;;;;;;;;;;;;;8.38;99.44;96954.03;4896793;29;19959;-75
2022/10/05 03:51:22;;;;;;;;;;;;;;;8.37;99.80;96950.59;4900579;29;19954;-75
2022/10/05 03:54:17;;;;;;;;;;;;;;;8.39;100.00;96947.81;4900781;29;20322;-75
2022/10/05 03:56:47;;;;;;;;;;;;;;;8.40;100.00;96947.63;4888307;29;19953;-75
2022/10/05 03:59:25;;;;;;;;;;;;;;;8.39;100.00;96946.00;4900215;29;19955;-75
2022/10/05 04:01:54;;;;;;;;;;;;;;;8.38;100.00;96943.56;4885586;29;20322;-76
2022/10/05 04:04:41;;;;;;;;;;;;;;;8.37;100.00;96945.38;4900490;29;19963;-75
2022/10/05 04:07:26;;;;;;;;;;;;;;;8.34;100.00;96935.31;4900522;29;19957;-75
2022/10/05 04:09:53;;;;;;;;;;;;;;;8.33;100.00;96942.34;4899479;29;19953;-75
2022/10/05 04:12:24;;;;;;;;;;;;;;;8.33;100.00;96941.53;4900510;29;19962;-75
2022/10/05 04:14:58;;;;;;;;;;;;;;;8.32;100.00;96945.16;4900243;29;19971;-75
2022/10/05 04:17:27;;;;;;;;;;;;;;;8.31;100.00;96946.13;4900669;29;19959;-75
2022/10/05 04:19:59;;;;;;;;;;;;;;;8.29;100.00;96940.28;4900552;29;19953;-75
2022/10/05 04:22:30;;;;;;;;;;;;;;;8.25;100.00;96937.28;4900419;29;19957;-75
2022/10/05 04:25:05;;;;;;;;;;;;;;;8.23;100.00;96934.06;4900291;29;20009;-75
2022/10/05 04:27:33;;;;;;;;;;;;;;;8.22;100.00;96942.88;4900110;29;19956;-75
2022/10/05 04:30:04;;;;;;;;;;;;;;;8.19;100.00;96935.44;4900472;29;19954;-75
2022/10/05 04:32:36;;;;;;;;;;;;;;;8.18;99.98;96930.38;4900309;29;19980;-75
2022/10/05 04:35:20;;;;;;;;;;;;;;;8.14;99.66;96932.56;4900076;29;19979;-75
2022/10/05 04:37:46;;;;;;;;;;;;;;;8.11;100.00;96930.34;4890104;29;19956;-75
2022/10/05 04:40:12;;;;;;;;;;;;;;;8.10;100.00;96939.16;4900140;29;19968;-75
2022/10/05 04:42:43;;;;;;;;;;;;;;;8.08;100.00;96936.75;4899858;29;19954;-75
2022/10/05 04:45:09;;;;;;;;;;;;;;;8.07;100.00;96931.72;4899596;29;19952;-75
2022/10/05 04:47:44;;;;;;;;;;;;;;;8.08;100.00;96939.38;4898724;29;19963;-74
2022/10/05 04:50:10;;;;;;;;;;;;;;;8.09;100.00;96933.13;4900019;29;20316;-74
2022/10/05 04:52:49;;;;;;;;;;;;;;;8.09;100.00;96932.34;4900097;29;19960;-75
2022/10/05 04:55:35;;;;;;;;;;;;;;;8.09;100.00;96940.16;4899912;29;20483;-75
2022/10/05 04:58:25;;;;;;;;;;;;;;;8.07;99.97;96937.75;4899629;29;19960;-75
2022/10/05 05:01:06;;;;;;;;;;;;;;;8.06;100.00;96941.38;4900367;29;19972;-75
2022/10/05 05:03:51;;;;;;;;;;;;;;;8.03;99.67;96941.72;4899630;29;19953;-75
2022/10/05 05:06:16;;;;;;;;;;;;;;;8.00;99.70;96936.06;4899437;29;19967;-75
2022/10/05 05:08:45;;;;;;;;;;;;;;;7.98;99.70;96938.06;4898474;29;19964;-75
2022/10/05 05:11:23;;;;;;;;;;;;;;;7.95;100.00;96941.84;4899263;29;19959;-75
2022/10/05 05:13:56;;;;;;;;;;;;;;;7.95;100.00;96936.63;4899691;29;19973;-75
2022/10/05 05:16:34;;;;;;;;;;;;;;;7.95;100.00;96933.22;4888978;29;19984;-75
2022/10/05 05:19:00;;;;;;;;;;;;;;;7.95;100.00;96941.84;4899096;29;19960;-75
2022/10/05 05:21:49;;;;;;;;;;;;;;;7.95;100.00;96946.28;4899374;29;19965;-75
2022/10/05 05:24:27;;;;;;;;;;;;;;;7.95;100.00;96957.53;4899275;29;19955;-75
2022/10/05 05:26:59;;;;;;;;;;;;;;;7.95;100.00;96959.34;4899262;29;20401;-75
2022/10/05 05:29:27;;;;;;;;;;;;;;;7.96;100.00;96961.78;4899021;29;20433;-75
2022/10/05 05:31:59;;;;;;;;;;;;;;;7.96;100.00;96972.22;4899205;29;19974;-75
2022/10/05 05:34:58;;;;;;;;;;;;;;;7.98;100.00;96972.84;4899282;29;19958;-75
2022/10/05 05:37:42;;;;;;;;;;;;;;;8.00;100.00;96975.25;4875251;29;19952;-75
2022/10/05 05:40:15;;;;;;;;;;;;;;;7.99;100.00;96981.47;4899195;29;20323;-75
2022/10/05 05:43:01;;;;;;;;;;;;;;;8.00;100.00;96977.84;4898866;29;20324;-75
2022/10/05 05:45:51;;;;;;;;;;;;;;;7.99;100.00;96971.84;4898499;29;20415;-75
2022/10/05 05:48:29;;;;;;;;;;;;;;;8.00;99.94;96980.47;4891113;29;19961;-75
2022/10/05 05:51:13;;;;;;;;;;;;;;;7.98;100.00;96983.28;4899197;29;19957;-75
2022/10/05 05:53:41;;;;;;;;;;;;;;;7.99;100.00;96978.88;4898781;29;19963;-75
2022/10/05 05:56:19;;;;;;;;;;;;;;;7.98;100.00;96983.28;4898744;29;19970;-75
2022/10/05 05:59:10;;;;;;;;;;;;;;;8.00;100.00;96981.28;4898625;29;19951;-75
2022/10/05 06:01:42;;;;;;;;;;;;;;;8.03;100.00;96986.13;4898687;29;19956;-75
2022/10/05 06:04:11;;;;;;;;;;;;;;;8.10;100.00;96984.38;4898709;29;20434;-75
2022/10/05 06:06:40;;;;;;;;;;;;;;;8.23;100.00;96986.31;4898661;29;19951;-75
2022/10/05 06:09:13;;;;;;;;;;;;;;;8.51;100.00;96985.53;4898917;29;20401;-75
2022/10/05 06:11:42;;;;;;;;;;;;;;;8.97;99.08;96986.78;4896772;29;19962;-75
2022/10/05 06:14:26;;;;;;;;;;;;;;;9.41;96.85;96988.16;4898089;29;19962;-75
2022/10/05 06:16:54;;;;;;;;;;;;;;;9.77;95.05;96989.66;4898576;29;19961;-75
2022/10/05 06:19:22;;;;;;;;;;;;;;;10.05;93.60;96992.09;4898675;29;20302;-75
2022/10/05 06:21:57;;;;;;;;;;;;;;;10.30;92.27;97003.63;4898497;29;19952;-75
2022/10/05 06:24:26;;;;;;;;;;;;;;;10.55;91.41;96997.78;4888543;29;19963;-75
2022/10/05 06:27:05;;;;;;;;;;;;;;;10.69;90.48;96994.13;4898569;29;20352;-75
2022/10/05 06:29:43;;;;;;;;;;;;;;;10.88;90.45;97000.34;4902439;29;19962;-75
2022/10/05 06:32:29;;;;;;;;;;;;;;;11.11;89.67;96993.81;4902393;29;19982;-75
2022/10/05 06:35:03;;;;;;;;;;;;;;;11.31;89.21;96997.16;4872772;29;20437;-75
2022/10/05 06:37:54;;;;;;;;;;;;;;;11.47;88.57;96993.25;4902122;29;19964;-75
2022/10/05 06:40:20;;;;;;;;;;;;;;;11.63;88.07;96997.19;4902001;29;20501;-75
2022/10/05 06:42:54;;;;;;;;;;;;;;;11.77;87.93;96997.94;4902273;29;19959;-75
2022/10/05 06:45:43;;;;;;;;;;;;;;;11.93;87.69;97007.19;4902227;29;20295;-75
2022/10/05 06:48:18;;;;;;;;;;;;;;;12.11;87.10;96998.53;4889012;29;20315;-75
2022/10/05 06:50:47;;;;;;;;;;;;;;;12.27;86.27;96998.03;4901891;29;20355;-75
2022/10/05 06:53:28;;;;;;;;;;;;;;;12.41;86.90;96997.91;4901948;29;20036;-75
2022/10/05 06:55:57;;;;;;;;;;;;;;;12.53;85.84;96993.53;4901886;29;19988;-75
2022/10/05 06:58:29;;;;;;;;;;;;;;;12.61;87.46;97009.06;4901765;29;19951;-76
2022/10/05 07:01:03;;;;;;;;;;;;;;;12.67;87.29;97005.56;4902126;29;19958;-76
2022/10/05 07:03:28;;;;;;;;;;;;;;;12.68;87.58;97009.81;4902207;29;19956;-76
2022/10/05 07:05:57;;;;;;;;;;;;;;;12.72;88.16;97010.97;4901846;29;20510;-76
2022/10/05 07:08:55;;;;;;;;;;;;;;;12.71;87.66;97008.56;4901926;29;19967;-76
2022/10/05 07:11:30;;;;;;;;;;;;;;;12.70;88.97;97020.91;4870280;29;20409;-76
2022/10/05 07:14:08;;;;;;;;;;;;;;;12.72;88.39;97012.81;4888083;29;19949;-76
2022/10/05 07:16:38;;;;;;;;;;;;;;;12.70;86.89;97012.22;4901810;29;19972;-76
2022/10/05 07:19:03;;;;;;;;;;;;;;;12.69;87.60;97019.31;4890106;29;20327;-76
2022/10/05 07:21:43;;;;;;;;;;;;;;;12.77;88.44;97018.22;4901410;29;20050;-76
2022/10/05 07:24:28;;;;;;;;;;;;;;;12.84;88.15;97018.16;4893605;29;19953;-76
2022/10/05 07:27:00;;;;;;;;;;;;;;;12.91;87.58;97016.25;4901325;29;19957;-76
2022/10/05 07:29:31;;;;;;;;;;;;;;;12.94;88.17;97018.47;4901241;29;19966;-76
2022/10/05 07:32:06;;;;;;;;;;;;;;;13.00;86.96;97004.44;4901422;29;19976;-76
2022/10/05 07:34:41;;;;;;;;;;;;;;;12.96;87.59;97011.16;4901226;29;19967;-76
2022/10/05 07:40:18;;;;;;;;;;;;;;;12.97;88.27;97023.28;4896984;29;19957;-76
2022/10/05 07:42:55;;;;;;;;;;;;;;;13.05;88.55;97028.25;4899027;29;19958;-76
2022/10/05 07:45:21;;;;;;;;;;;;;;;13.09;87.04;97018.91;4899829;29;19965;-76
2022/10/05 07:47:52;;;;;;;;;;;;;;;13.11;88.54;97021.31;4900505;29;19955;-76
2022/10/05 07:50:25;;;;;;;;;;;;;;;13.19;89.26;97027.09;4900937;29;19965;-76
2022/10/05 07:52:55;;;;;;;;;;;;;;;13.23;87.48;97024.84;4900881;29;20336;-76
2022/10/05 07:55:24;;;;;;;;;;;;;;;13.33;87.99;97034.88;4900768;29;19968;-76
2022/10/05 07:58:08;;;;;;;;;;;;;;;13.42;87.28;97020.38;4900041;29;20455;-75
2022/10/05 08:00:46;;;;;;;;;;;;;;;13.48;85.76;97018.69;4900812;29;19965;-76
2022/10/05 08:03:32;;;;;;;;;;;;;;;13.56;86.96;97024.44;4900660;29;20328;-76
2022/10/05 08:05:59;;;;;;;;;;;;;;;13.62;86.67;97019.31;4900221;29;19989;-76
2022/10/05 08:08:41;;;;;;;;;;;;;;;13.74;88.12;97031.53;4888071;29;19959;-76
2022/10/05 08:11:15;;;;;;;;;;;;;;;13.84;87.19;97031.00;4900269;29;19959;-75
2022/10/05 08:13:53;;;;;;;;;;;;;;;13.98;87.19;97024.50;4890894;29;19968;-76
2022/10/05 08:16:19;;;;;;;;;;;;;;;14.05;85.75;97013.84;4900208;29;19980;-76
2022/10/05 08:18:55;;;;;;;;;;;;;;;14.12;85.94;97013.75;4900630;29;20338;-76
2022/10/05 08:21:34;;;;;;;;;;;;;;;14.18;85.48;97010.22;4891209;29;19954;-76
2022/10/05 08:24:08;;;;;;;;;;;;;;;14.27;85.87;97011.47;4900292;29;20419;-76
2022/10/05 08:26:34;;;;;;;;;;;;;;;14.27;84.45;96997.50;4900234;29;19961;-76
2022/10/05 08:29:03;;;;;;;;;;;;;;;14.26;86.18;97015.16;4900329;29;19953;-76
2022/10/05 08:31:34;;;;;;;;;;;;;;;14.32;85.95;97018.72;4899932;29;19963;-76
2022/10/05 08:34:19;;;;;;;;;;;;;;;14.33;85.65;97013.22;4900183;29;19974;-76
2022/10/05 08:36:57;;;;;;;;;;;;;;;14.43;87.41;97019.78;4900077;29;19966;-76
2022/10/05 08:39:26;;;;;;;;;;;;;;;14.47;85.30;97005.91;4900042;29;19959;-76
2022/10/05 08:41:57;;;;;;;;;;;;;;;14.53;87.18;97027.91;4899869;29;19955;-76
2022/10/05 08:44:29;;;;;;;;;;;;;;;14.58;86.52;97022.78;4899898;29;19967;-76
2022/10/05 08:47:01;;;;;;;;;;;;;;;14.61;86.85;97025.78;4899870;29;19965;-76
2022/10/05 08:49:46;;;;;;;;;;;;;;;14.68;86.53;97020.41;4899476;29;19956;-76
2022/10/05 08:52:12;;;;;;;;;;;;;;;14.78;87.98;97027.72;4893423;29;19948;-76
2022/10/05 08:54:43;;;;;;;;;;;;;;;14.84;87.23;97020.72;4899729;29;19966;-76
2022/10/05 08:57:27;;;;;;;;;;;;;;;14.87;84.29;97001.78;4898362;29;19975;-75
2022/10/05 08:59:56;;;;;;;;;;;;;;;14.90;86.34;97027.72;4899501;29;19952;-76
2022/10/05 09:02:27;;;;;;;;;;;;;;;14.91;86.82;97019.59;4899490;29;19968;-76
2022/10/05 09:05:02;;;;;;;;;;;;;;;14.95;84.61;97004.88;4886009;29;19952;-76
2022/10/05 09:07:28;;;;;;;;;;;;;;;14.96;86.08;97011.75;4899433;29;19951;-76
2022/10/05 09:09:54;;;;;;;;;;;;;;;15.05;87.30;97014.84;4899455;29;20328;-76
2022/10/05 09:12:38;;;;;;;;;;;;;;;15.13;83.20;96993.34;4898496;29;20409;-76
2022/10/05 09:15:22;;;;;;;;;;;;;;;15.20;85.36;97012.53;4897072;29;19951;-76
2022/10/05 09:17:57;;;;;;;;;;;;;;;15.33;85.14;97008.00;4898752;29;19949;-76
2022/10/05 09:20:36;;;;;;;;;;;;;;;15.46;85.09;97001.66;4898452;29;19967;-76
2022/10/05 09:23:11;;;;;;;;;;;;;;;15.54;82.76;97001.25;4897225;29;19953;-76
2022/10/05 09:25:42;;;;;;;;;;;;;;;15.61;82.98;96997.44;4899006;29;19962;-76
2022/10/05 09:28:17;;;;;;;;;;;;;;;15.62;82.72;97001.72;4898769;29;19952;-76
2022/10/05 09:30:52;;;;;;;;;;;;;;;15.70;84.57;97005.81;4898436;29;19966;-76
2022/10/05 09:33:30;;;;;;;;;;;;;;;15.78;83.29;97004.66;4898170;29;19978;-77
2022/10/05 09:36:04;;;;;;;;;;;;;;;15.82;83.86;97001.31;4899008;29;20455;-76
2022/10/05 09:38:30;;;;;;;;;;;;;;;15.88;84.36;97006.69;4898473;29;19964;-76
2022/10/05 09:40:59;;;;;;;;;;;;;;;15.90;83.22;96984.25;4898372;29;19960;-76
2022/10/05 09:43:31;;;;;;;;;;;;;;;15.95;85.79;97013.44;4898026;29;19960;-76
2022/10/05 09:45:57;;;;;;;;;;;;;;;16.00;83.61;96991.53;4898728;29;19962;-76
2022/10/05 09:48:32;;;;;;;;;;;;;;;16.03;83.60;96988.44;4899088;29;19961;-76
2022/10/05 09:51:18;;;;;;;;;;;;;;;16.09;85.73;97003.34;4898750;29;19961;-75
2022/10/05 09:53:47;;;;;;;;;;;;;;;16.17;84.47;96981.00;4888519;29;19962;-76
2022/10/05 09:56:25;;;;;;;;;;;;;;;16.22;84.75;96983.72;4898621;29;19970;-76
2022/10/05 09:58:51;;;;;;;;;;;;;;;16.29;82.75;96967.66;4898674;29;19956;-76
2022/10/05 10:01:19;;;;;;;;;;;;;;;16.33;82.25;96958.19;4898528;29;19960;-76
2022/10/05 10:04:06;;;;;;;;;;;;;;;16.39;83.07;96968.63;4898640;29;19962;-76
2022/10/05 10:06:43;;;;;;;;;;;;;;;16.49;83.15;96961.91;4898771;29;19960;-76
2022/10/05 10:09:28;;;;;;;;;;;;;;;16.53;81.97;96947.91;4898583;29;20402;-76
2022/10/05 10:12:00;;;;;;;;;;;;;;;16.61;81.34;96944.84;4898616;29;20635;-76
2022/10/05 10:14:28;;;;;;;;;;;;;;;16.71;84.01;96954.78;4898523;29;20472;-76
2022/10/05 10:17:26;;;;;;;;;;;;;;;16.82;81.95;96938.00;4898566;29;20015;-76
2022/10/05 10:20:05;;;;;;;;;;;;;;;16.97;80.65;96933.97;4889100;29;20022;-76
2022/10/05 10:22:43;;;;;;;;;;;;;;;17.10;81.27;96933.56;4898467;29;19955;-76
2022/10/05 10:25:26;;;;;;;;;;;;;;;17.24;80.48;96926.06;4898477;29;19979;-76
2022/10/05 10:28:12;;;;;;;;;;;;;;;17.41;80.89;96926.75;4888791;29;20412;-76
2022/10/05 10:30:56;;;;;;;;;;;;;;;17.57;80.12;96925.03;4897946;29;19952;-76
2022/10/05 10:33:37;;;;;;;;;;;;;;;17.72;80.28;96929.69;4898568;29;19981;-76
2022/10/05 10:36:12;;;;;;;;;;;;;;;17.84;79.58;96921.63;4898267;29;19977;-76
2022/10/05 10:38:50;;;;;;;;;;;;;;;17.96;78.98;96918.81;4898283;29;19957;-76
2022/10/05 10:41:19;;;;;;;;;;;;;;;18.09;80.06;96918.38;4898726;29;20432;-76
2022/10/05 10:44:11;;;;;;;;;;;;;;;18.24;80.68;96923.78;4897025;29;19982;-76
2022/10/05 10:46:39;;;;;;;;;;;;;;;18.43;78.13;96902.13;4876372;29;19953;-76
2022/10/05 10:49:34;;;;;;;;;;;;;;;18.57;77.19;96897.16;4898279;29;19948;-76
2022/10/05 10:52:16;;;;;;;;;;;;;;;18.74;77.17;96897.78;4898129;29;19957;-76
2022/10/05 10:54:42;;;;;;;;;;;;;;;18.95;76.76;96893.38;4898297;29;19956;-76
2022/10/05 10:57:10;;;;;;;;;;;;;;;19.16;77.10;96893.44;4897932;29;20018;-76
2022/10/05 10:59:52;;;;;;;;;;;;;;;19.30;74.33;96867.13;4898167;29;19959;-76
2022/10/05 11:02:31;;;;;;;;;;;;;;;19.48;73.47;96863.97;4898323;29;19964;-76
2022/10/05 11:04:57;;;;;;;;;;;;;;;19.69;72.89;96859.47;4898519;29;19950;-76
2022/10/05 11:07:38;;;;;;;;;;;;;;;19.80;72.24;96849.66;4898395;29;19960;-76
2022/10/05 11:10:24;;;;;;;;;;;;;;;19.95;72.43;96856.81;4898043;29;19955;-76
2022/10/05 11:13:17;;;;;;;;;;;;;;;20.08;68.38;96808.38;4898109;29;20006;-76
2022/10/05 11:16:01;;;;;;;;;;;;;;;20.26;70.35;96828.28;4898791;29;19964;-76
2022/10/05 11:18:46;;;;;;;;;;;;;;;20.40;67.11;96800.00;4897558;29;20004;-76
2022/10/05 11:21:11;;;;;;;;;;;;;;;20.54;68.34;96807.44;4897982;29;20342;-76
2022/10/05 11:23:37;;;;;;;;;;;;;;;20.72;67.72;96800.72;4901227;29;19952;-76
2022/10/05 11:26:12;;;;;;;;;;;;;;;20.90;68.36;96809.97;4901551;29;19953;-75
2022/10/05 11:28:50;;;;;;;;;;;;;;;21.03;68.58;96806.66;4901095;29;20316;-75
2022/10/05 11:31:42;;;;;;;;;;;;;;;21.09;63.81;96769.03;4901643;29;19973;-75
2022/10/05 11:34:11;;;;;;;;;;;;;;;21.19;64.16;96773.50;4898790;29;19973;-75
2022/10/05 11:36:47;;;;;;;;;;;;;;;21.32;64.25;96780.06;4900856;29;20446;-76
2022/10/05 11:39:15;;;;;;;;;;;;;;;21.46;63.70;96769.56;4901156;29;19948;-76
2022/10/05 11:41:41;;;;;;;;;;;;;;;21.52;63.47;96763.13;4901017;29;19957;-75
2022/10/05 11:44:11;;;;;;;;;;;;;;;21.63;64.94;96785.19;4900399;29;19961;-75
2022/10/05 11:46:50;;;;;;;;;;;;;;;21.74;63.20;96765.34;4901051;29;19959;-75
2022/10/05 11:49:22;;;;;;;;;;;;;;;21.89;63.74;96761.72;4887657;29;19968;-75
2022/10/05 11:52:07;;;;;;;;;;;;;;;21.99;62.61;96748.25;4900795;29;19968;-75
2022/10/05 11:54:42;;;;;;;;;;;;;;;22.06;60.14;96740.69;4900789;29;19963;-75
2022/10/05 11:57:14;;;;;;;;;;;;;;;22.17;62.58;96768.06;4900652;29;19977;-75
2022/10/05 11:59:44;;;;;;;;;;;;;;;22.18;56.99;96731.50;4900837;29;19965;-75
2022/10/05 12:02:10;;;;;;;;;;;;;;;22.24;58.10;96749.88;4900897;29;19974;-75
2022/10/05 12:04:55;;;;;;;;;;;;;;;22.26;54.66;96720.22;4900451;29;19960;-75
2022/10/05 12:07:21;;;;;;;;;;;;;;;22.29;54.25;96741.00;4893128;29;20324;-75
2022/10/05 12:10:13;;;;;;;;;;;;;;;22.25;54.28;96753.34;4900499;29;19951;-75
2022/10/05 12:12:45;;;;;;;;;;;;;;;22.22;50.92;96808.09;4895445;29;20428;-75
2022/10/05 12:15:30;;;;;;;;;;;;;;;22.18;49.22;96806.28;4900682;29;19970;-75
2022/10/05 12:18:22;;;;;;;;;;;;;;;22.15;48.55;96807.63;4900121;29;20339;-75
2022/10/05 12:20:53;;;;;;;;;;;;;;;22.21;50.47;96819.84;4897664;29;19956;-76
2022/10/05 12:23:22;;;;;;;;;;;;;;;22.32;52.64;96825.91;4900439;29;19979;-76
2022/10/05 12:25:52;;;;;;;;;;;;;;;22.41;50.95;96818.09;4899504;29;19959;-75
2022/10/05 12:28:21;;;;;;;;;;;;;;;22.44;46.23;96804.94;4900609;29;19963;-75
2022/10/05 12:30:47;;;;;;;;;;;;;;;22.46;46.74;96812.69;4900198;29;19969;-75
2022/10/05 12:33:34;;;;;;;;;;;;;;;22.49;48.54;96814.78;4900382;29;19974;-74
2022/10/05 12:36:20;;;;;;;;;;;;;;;22.54;46.26;96804.03;4889139;29;19962;-75
2022/10/05 12:38:53;;;;;;;;;;;;;;;22.52;45.84;96808.88;4899448;29;19964;-75
2022/10/05 12:41:19;;;;;;;;;;;;;;;22.57;47.22;96810.69;4900075;29;19975;-75
2022/10/05 12:43:52;;;;;;;;;;;;;;;22.58;45.96;96805.06;4899500;29;19991;-75
2022/10/05 12:46:40;;;;;;;;;;;;;;;22.57;44.76;96816.03;4899915;29;19958;-75
2022/10/05 12:49:24;;;;;;;;;;;;;;;22.60;46.70;96820.81;4899598;29;19985;-75
2022/10/05 12:51:53;;;;;;;;;;;;;;;22.63;45.79;96826.38;4890763;29;19961;-74
2022/10/05 12:54:18;;;;;;;;;;;;;;;22.66;44.88;96822.34;4899428;29;19963;-75
2022/10/05 12:56:56;;;;;;;;;;;;;;;22.71;46.61;96822.28;4899766;29;19972;-74
2022/10/05 12:59:34;;;;;;;;;;;;;;;22.75;45.72;96817.94;4899713;29;19959;-75
2022/10/05 13:02:00;;;;;;;;;;;;;;;22.76;44.66;96816.06;4899715;29;19955;-76
2022/10/05 13:04:45;;;;;;;;;;;;;;;22.77;44.81;96815.78;4899650;29;19964;-75
2022/10/05 13:07:17;;;;;;;;;;;;;;;22.72;42.17;96810.50;4899569;29;19954;-75
2022/10/05 13:09:50;;;;;;;;;;;;;;;22.72;45.29;96817.72;4899539;29;19954;-76
2022/10/05 13:12:25;;;;;;;;;;;;;;;22.67;44.16;96819.38;4899319;29;19972;-75
2022/10/05 13:14:57;;;;;;;;;;;;;;;22.64;44.79;96824.50;4899781;29;19956;-76
2022/10/05 13:17:28;;;;;;;;;;;;;;;22.60;45.98;96818.13;4899332;29;20428;-76
2022/10/05 13:20:01;;;;;;;;;;;;;;;22.59;45.48;96822.66;4899191;29;19957;-76
2022/10/05 13:22:41;;;;;;;;;;;;;;;22.64;45.75;96824.50;4899138;29;19964;-76
2022/10/05 13:25:18;;;;;;;;;;;;;;;22.68;44.48;96817.50;4899249;29;19959;-76
2022/10/05 13:27:47;;;;;;;;;;;;;;;22.74;44.14;96816.38;4899343;29;19952;-76
2022/10/05 13:30:13;;;;;;;;;;;;;;;22.76;44.12;96822.19;4898959;29;19986;-76
2022/10/05 13:32:51;;;;;;;;;;;;;;;22.78;42.08;96828.06;4899429;29;20432;-75